OLRA weather

Public forecast

Using degrees Celsius for public forecast. Weather courtesy of forecast.io.

Closest aviation weather report (METAR) to Rayak Air Base

Closest report is Beirut Rafic Hariri International Airport, 25.0 nm (46.2 km) W. Retrieved 2020/08/09 19:00 UTC (54 minutes ago):

OLBA 091900Z 24007KT 9999 SCT029 28/20 Q1008 NOSIG

Closest aviation forecast (TAF) to Rayak Air Base

Forecast is more than 12 hours old.

Closest forecast is Beirut Rafic Hariri International Airport, 25.0 nm (46.2 km) W. Retrieved 2020/08/09 06:00 UTC (14 hours ago):

TAF OLBA 090400Z 0906/1012 22016KT 8000 BKN026 PROB40 TEMPO 0906/0918 5000 BR PROB30 TEMPO 0915/1012 DZ BECMG 0918/0921 16005KT BECMG 1006/1008 23014KT